Hlavní strana
METAR-TAF:

METAR-TAF

Letiště :

Marietta, Georgie, Spojené státy americké

zeměpisná šířka: 33-55N, zeměpisná délka: 084-31W, výška: 326 m

Aktuální stav počasí

Zpráva byla vytvořena před 16 minutami, v 10:56 UTC
Bezvětří
Teplota 21°C
Vlhkost vzduchu 88%
Tlak 1022 hPa
Viditelnost: 16.1 km
Polojasno ve výšce 25000 ft

METAR: KMGE 261056Z 00000KT 10SM SCT250 21/19 A3017 RMK AO2A SLP207 T02120189 $

Čas: 07:12 (11:12 UTC)

Předpověď počasí

Zpráva byla vytvořena před 6 hodinami a 12 minutami, v 05:00 UTC
Předpověď platná od 26 v 05 UTC do 27 v 11 UTC
Severozápadní vítr 6 kt
Viditelnost 10 km a více
Skoro jasno ve výšce 8000 ft

TAF: KMGE 260500Z 2605/2711 31006KT 9999 FEW080 QNH3002INS TX37/2621Z TN21/2611Z

Stav a předpovědi počasí z více než 4 000 letišť (zprávy METAR a TAF).

Červené a žluté tečky na mapě představují dostupné meteorologické stanice.

Když kurzor umístíte na tečku, zobrazí se název stanice.

Pak kliknutím zobrazíte stav a předpověď počasí.

Chcete-li změnit mapu, kliknutím na zelené tlačítko se znaménkem +mapu přiblížíte, kliknutím na zelené tlačítko se znaménkem – mapu oddálíte a kliknutím na zelené šipky přejdete na sousední mapy.


METAR-TAF: